createdAt,value
2017-06-10T00:01:57.251Z,17.50
2017-06-10T00:04:28.809Z,17.50
2017-06-10T00:07:00.346Z,17.40
2017-06-10T00:09:31.912Z,17.50
2017-06-10T00:12:03.445Z,17.40
2017-06-10T00:14:35.937Z,17.40
2017-06-10T00:17:07.445Z,17.30
2017-06-10T00:19:38.997Z,17.50
2017-06-10T00:22:10.510Z,17.50
2017-06-10T00:24:42.027Z,17.50
2017-06-10T00:27:14.264Z,17.40
2017-06-10T00:29:45.882Z,17.40
2017-06-10T00:32:17.360Z,17.50
2017-06-10T00:34:48.904Z,17.50
2017-06-10T00:37:20.460Z,17.40
2017-06-10T00:39:52.022Z,17.50
2017-06-10T00:42:23.475Z,17.40
2017-06-10T00:44:55.012Z,17.40
2017-06-10T00:47:26.492Z,17.50
2017-06-10T00:49:58.084Z,17.50
2017-06-10T00:52:29.605Z,17.50
2017-06-10T00:55:01.121Z,17.50
2017-06-10T00:57:32.604Z,17.60
2017-06-10T01:00:04.439Z,17.60
2017-06-10T01:02:35.969Z,17.60
2017-06-10T01:05:07.488Z,17.60
2017-06-10T01:07:38.962Z,17.60
2017-06-10T01:10:10.527Z,17.60
2017-06-10T01:12:42.032Z,17.60
2017-06-10T01:15:13.581Z,17.60
2017-06-10T01:17:45.053Z,17.60
2017-06-10T01:20:17.306Z,17.60
2017-06-10T01:22:48.819Z,17.60
2017-06-10T01:25:20.339Z,17.60
2017-06-10T01:27:51.880Z,17.50
2017-06-10T01:30:24.144Z,17.60
2017-06-10T01:32:56.433Z,17.60
2017-06-10T01:35:28.685Z,17.60
2017-06-10T01:38:00.977Z,17.60
2017-06-10T01:40:32.498Z,17.60
2017-06-10T01:43:04.086Z,17.60
2017-06-10T01:45:35.633Z,17.70
2017-06-10T01:48:07.245Z,17.60
2017-06-10T01:50:38.737Z,17.60
2017-06-10T01:53:10.254Z,17.50
2017-06-10T01:55:41.777Z,17.50
2017-06-10T01:58:13.320Z,17.60
2017-06-10T02:00:44.789Z,17.60
2017-06-10T02:03:16.310Z,17.60
2017-06-10T02:05:47.825Z,17.70
2017-06-10T02:08:19.353Z,17.70
2017-06-10T02:10:50.977Z,17.70
2017-06-10T02:13:22.457Z,17.80
2017-06-10T02:15:54.124Z,17.80
2017-06-10T02:18:25.656Z,17.70
2017-06-10T02:20:57.195Z,17.80
2017-06-10T02:23:28.751Z,17.70
2017-06-10T02:26:00.286Z,17.70
2017-06-10T02:28:31.822Z,17.70
2017-06-10T02:31:04.041Z,17.80
2017-06-10T02:33:35.590Z,17.70
2017-06-10T02:36:07.146Z,17.70
2017-06-10T02:38:38.700Z,17.80
2017-06-10T02:41:10.285Z,17.70
2017-06-10T02:43:41.764Z,17.70
2017-06-10T02:46:13.298Z,17.70
2017-06-10T02:48:45.538Z,17.70
2017-06-10T02:51:17.073Z,17.70
2017-06-10T02:53:48.654Z,17.70
2017-06-10T02:56:20.193Z,17.70
2017-06-10T02:58:51.743Z,17.80
2017-06-10T03:01:23.217Z,17.80
2017-06-10T03:03:54.720Z,17.80
2017-06-10T03:06:26.225Z,17.80
2017-06-10T03:08:57.793Z,17.70
2017-06-10T03:11:30.033Z,17.70
2017-06-10T03:14:01.674Z,17.70
2017-06-10T03:16:45.534Z,17.70
2017-06-10T03:19:17.008Z,17.70
2017-06-10T03:21:49.309Z,17.70
2017-06-10T03:24:20.826Z,17.70
2017-06-10T03:26:52.353Z,17.70
2017-06-10T03:29:23.849Z,17.70
2017-06-10T03:31:55.672Z,17.80
2017-06-10T03:34:27.145Z,17.90
2017-06-10T03:36:59.421Z,18.30
2017-06-10T03:39:30.929Z,18.30
2017-06-10T03:42:02.489Z,18.40
2017-06-10T03:44:33.958Z,18.50
2017-06-10T03:47:05.597Z,18.60
2017-06-10T03:49:37.097Z,18.60
2017-06-10T03:52:08.629Z,18.70
2017-06-10T03:54:40.881Z,18.80
2017-06-10T03:57:07.301Z,18.80
2017-06-10T03:59:38.780Z,18.80
2017-06-10T04:02:11.052Z,18.80
2017-06-10T04:04:43.308Z,18.90
2017-06-10T04:07:14.861Z,18.90
2017-06-10T04:09:46.355Z,18.90
2017-06-10T04:12:17.864Z,18.90
2017-06-10T04:14:49.341Z,18.90
2017-06-10T04:17:20.941Z,19.00
2017-06-10T04:19:52.482Z,19.00
2017-06-10T04:22:24.004Z,19.00
2017-06-10T04:24:55.553Z,19.00
2017-06-10T04:27:27.764Z,18.90
2017-06-10T04:29:59.271Z,18.90
2017-06-10T04:32:25.685Z,18.90
2017-06-10T04:34:57.165Z,18.80
2017-06-10T04:37:28.720Z,18.60
2017-06-10T04:40:00.195Z,18.40
2017-06-10T04:42:31.685Z,18.30
2017-06-10T04:45:03.273Z,18.10
2017-06-10T04:47:34.745Z,17.90
2017-06-10T04:50:06.309Z,17.90
2017-06-10T04:52:37.813Z,17.80
2017-06-10T04:55:09.349Z,17.80
2017-06-10T04:57:40.853Z,17.80
2017-06-10T05:00:12.409Z,17.70
2017-06-10T05:02:43.913Z,17.70
2017-06-10T05:05:15.472Z,17.70
2017-06-10T05:07:47.705Z,17.70
2017-06-10T05:10:19.300Z,17.60
2017-06-10T05:12:51.521Z,17.60
2017-06-10T05:15:23.425Z,17.60
2017-06-10T05:17:55.688Z,17.50
2017-06-10T05:20:27.233Z,17.50
2017-06-10T05:22:58.715Z,17.40
2017-06-10T05:25:30.277Z,17.20
2017-06-10T05:28:01.790Z,17.10
2017-06-10T05:30:33.682Z,17.10
2017-06-10T05:33:05.195Z,17.00
2017-06-10T05:35:36.830Z,16.90
2017-06-10T05:38:08.341Z,16.90
2017-06-10T05:40:40.586Z,17.00
2017-06-10T05:43:12.114Z,17.00
2017-06-10T05:45:43.741Z,17.00
2017-06-10T05:48:15.271Z,17.00
2017-06-10T05:50:46.824Z,17.00
2017-06-10T05:53:18.346Z,16.90
2017-06-10T05:55:49.938Z,16.90
2017-06-10T05:58:21.437Z,17.00
2017-06-10T06:00:52.985Z,17.00
2017-06-10T06:03:24.483Z,17.00
2017-06-10T06:05:56.742Z,16.90
2017-06-10T06:08:29.000Z,16.90
2017-06-10T06:11:01.271Z,17.00
2017-06-10T06:13:32.786Z,17.00
2017-06-10T06:16:04.426Z,17.00
2017-06-10T06:18:35.961Z,16.80
2017-06-10T06:21:07.521Z,16.60
2017-06-10T06:23:38.998Z,16.50
2017-06-10T06:26:10.604Z,16.40
2017-06-10T06:28:42.869Z,16.70
2017-06-10T06:31:15.188Z,16.70
2017-06-10T06:33:46.733Z,16.70
2017-06-10T06:36:18.277Z,16.80
2017-06-10T06:38:49.801Z,16.90
2017-06-10T06:41:22.087Z,17.10
2017-06-10T06:43:53.597Z,17.10
2017-06-10T06:46:25.252Z,17.20
2017-06-10T06:48:56.942Z,17.20
2017-06-10T06:51:28.501Z,17.10
2017-06-10T06:54:00.036Z,17.10
2017-06-10T06:56:32.232Z,17.20
2017-06-10T06:59:03.799Z,17.20
2017-06-10T07:01:35.306Z,17.10
2017-06-10T07:04:07.621Z,17.10
2017-06-10T07:06:39.265Z,17.00
2017-06-10T07:09:11.643Z,17.20
2017-06-10T07:11:43.249Z,17.30
2017-06-10T07:14:15.025Z,17.30
2017-06-10T07:16:53.526Z,17.30
2017-06-10T07:19:25.003Z,17.40
2017-06-10T07:21:56.782Z,17.30
2017-06-10T07:24:28.316Z,17.30
2017-06-10T07:26:59.870Z,17.30
2017-06-10T07:29:31.383Z,17.40
2017-06-10T07:32:02.974Z,17.40
2017-06-10T07:34:34.606Z,17.50
2017-06-10T07:37:06.158Z,17.50
2017-06-10T07:39:38.457Z,17.70
2017-06-10T07:42:10.006Z,17.70
2017-06-10T07:44:41.601Z,17.50
2017-06-10T07:47:13.123Z,17.60
2017-06-10T07:49:44.670Z,17.70
2017-06-10T07:52:16.130Z,17.80
2017-06-10T07:54:47.655Z,18.10
2017-06-10T07:57:19.150Z,18.20
2017-06-10T07:59:50.689Z,18.30
2017-06-10T08:02:22.333Z,18.10
2017-06-10T08:04:53.849Z,18.10
2017-06-10T08:07:25.413Z,18.10
2017-06-10T08:09:57.789Z,18.20
2017-06-10T08:12:30.024Z,18.20
2017-06-10T08:15:01.595Z,18.20
2017-06-10T08:17:33.105Z,18.20
2017-06-10T08:20:05.437Z,18.20
2017-06-10T08:22:37.038Z,18.30
2017-06-10T08:25:08.576Z,18.40
2017-06-10T08:27:40.141Z,18.50
2017-06-10T08:30:11.653Z,18.50
2017-06-10T08:32:43.957Z,18.80
2017-06-10T08:35:15.513Z,18.80
2017-06-10T08:37:47.026Z,18.90
2017-06-10T08:40:18.582Z,18.90
2017-06-10T08:42:50.860Z,18.90
2017-06-10T08:45:22.406Z,18.90
2017-06-10T08:47:54.666Z,19.20
2017-06-10T08:50:26.958Z,19.30
2017-06-10T08:52:58.437Z,19.30
2017-06-10T08:55:29.935Z,19.30
2017-06-10T08:58:01.445Z,19.20
2017-06-10T09:00:33.098Z,19.30
2017-06-10T09:03:04.664Z,19.20
2017-06-10T09:05:36.183Z,19.10
2017-06-10T09:08:07.717Z,19.10
2017-06-10T09:10:39.222Z,19.20
2017-06-10T09:13:10.685Z,19.40
2017-06-10T09:15:42.241Z,19.50
2017-06-10T09:18:13.741Z,19.70
2017-06-10T09:20:45.278Z,19.80
2017-06-10T09:23:17.587Z,19.90
2017-06-10T09:25:49.257Z,19.90
2017-06-10T09:28:21.508Z,20.00
2017-06-10T09:30:53.053Z,19.90
2017-06-10T09:33:24.586Z,20.10
2017-06-10T09:35:56.101Z,20.20
2017-06-10T09:38:27.631Z,20.20
2017-06-10T09:40:59.197Z,20.30
2017-06-10T09:43:30.712Z,20.30
2017-06-10T09:46:02.274Z,20.40
2017-06-10T09:48:33.968Z,20.50
2017-06-10T09:51:05.528Z,20.60
2017-06-10T09:53:37.382Z,20.80
2017-06-10T09:56:08.861Z,20.80
2017-06-10T09:58:41.253Z,20.80
2017-06-10T10:01:12.781Z,20.80
2017-06-10T10:03:45.092Z,20.60
2017-06-10T10:06:16.616Z,20.60
2017-06-10T10:08:48.460Z,20.70
2017-06-10T10:11:19.993Z,20.70
2017-06-10T10:13:51.519Z,20.90
2017-06-10T10:16:23.034Z,20.90
2017-06-10T10:18:54.569Z,21.00
2017-06-10T10:21:26.774Z,21.20
2017-06-10T10:23:58.369Z,21.20
2017-06-10T10:26:29.898Z,21.30
2017-06-10T10:29:01.441Z,21.30
2017-06-10T10:31:32.937Z,21.60
2017-06-10T10:34:04.610Z,21.60
2017-06-10T10:36:36.099Z,21.60
2017-06-10T10:39:07.596Z,21.70
2017-06-10T10:41:41.296Z,21.60
2017-06-10T10:44:13.074Z,21.70
2017-06-10T10:46:44.733Z,21.80
2017-06-10T10:49:17.263Z,22.00
2017-06-10T10:51:49.557Z,22.00
2017-06-10T10:54:21.086Z,22.00
2017-06-10T10:56:52.635Z,22.20
2017-06-10T10:59:24.143Z,22.20
2017-06-10T11:01:55.794Z,22.40
2017-06-10T11:04:27.293Z,22.40
2017-06-10T11:06:58.946Z,22.50
2017-06-10T11:09:30.481Z,22.40
2017-06-10T11:12:02.038Z,22.50
2017-06-10T11:14:28.485Z,22.70
2017-06-10T11:16:59.949Z,23.00
2017-06-10T11:19:31.477Z,23.00
2017-06-10T11:22:02.989Z,23.20
2017-06-10T11:24:34.612Z,23.40
2017-06-10T11:27:06.878Z,23.50
2017-06-10T11:29:38.764Z,23.40
2017-06-10T11:32:11.034Z,23.80
2017-06-10T11:34:43.333Z,23.90
2017-06-10T11:37:14.830Z,23.90
2017-06-10T11:39:46.373Z,24.00
2017-06-10T11:42:17.945Z,24.10
2017-06-10T11:44:49.601Z,24.30
2017-06-10T11:47:21.112Z,24.50
2017-06-10T11:49:52.931Z,24.60
2017-06-10T11:52:24.565Z,24.70
2017-06-10T11:54:56.848Z,25.00
2017-06-10T11:57:28.341Z,25.00
2017-06-10T11:59:59.901Z,25.00
2017-06-10T12:02:31.352Z,24.90
2017-06-10T12:05:02.873Z,24.80
2017-06-10T12:07:35.122Z,24.80
2017-06-10T12:10:06.773Z,24.80
2017-06-10T12:12:38.301Z,24.80
2017-06-10T12:15:09.893Z,24.80
2017-06-10T12:17:42.337Z,24.70
2017-06-10T12:20:13.872Z,24.60
2017-06-10T12:22:45.776Z,24.70
2017-06-10T12:25:24.305Z,25.00
2017-06-10T12:27:56.668Z,25.50
2017-06-10T12:30:28.169Z,25.50
2017-06-10T12:32:59.770Z,25.60
2017-06-10T12:35:31.245Z,26.00
2017-06-10T12:38:03.530Z,26.50
2017-06-10T12:40:34.993Z,26.40
2017-06-10T12:43:06.537Z,26.60
2017-06-10T12:45:38.041Z,27.00
2017-06-10T12:48:09.690Z,27.10
2017-06-10T12:50:41.172Z,27.20
2017-06-10T12:53:13.473Z,27.60
2017-06-10T12:55:44.978Z,27.60
2017-06-10T12:58:16.549Z,27.60
2017-06-10T13:00:48.081Z,27.90
2017-06-10T13:03:19.726Z,28.50
2017-06-10T13:05:51.212Z,28.70
2017-06-10T13:08:23.469Z,28.90
2017-06-10T13:10:55.710Z,29.60
2017-06-10T13:13:27.590Z,29.60
2017-06-10T13:15:59.072Z,30.30
2017-06-10T13:18:25.473Z,30.60
2017-06-10T13:20:56.949Z,31.10
2017-06-10T13:23:29.159Z,30.50
2017-06-10T13:26:00.709Z,30.40
2017-06-10T13:28:32.222Z,30.30
2017-06-10T13:31:04.476Z,30.90
2017-06-10T13:33:36.713Z,31.10
2017-06-10T13:36:08.316Z,31.00
2017-06-10T13:38:39.817Z,31.00
2017-06-10T13:41:11.460Z,30.90
2017-06-10T13:43:42.925Z,30.60
2017-06-10T13:46:14.432Z,30.20
2017-06-10T13:48:45.979Z,29.80
2017-06-10T13:51:17.513Z,29.10
2017-06-10T13:53:49.781Z,29.70
2017-06-10T13:56:21.258Z,29.70
2017-06-10T13:58:52.837Z,30.40
2017-06-10T14:01:24.349Z,30.80
2017-06-10T14:03:56.607Z,30.60
2017-06-10T14:06:28.085Z,30.50
2017-06-10T14:08:59.729Z,30.60
2017-06-10T14:11:31.958Z,30.80
2017-06-10T14:14:03.468Z,30.80
2017-06-10T14:16:34.989Z,31.30
2017-06-10T14:19:06.499Z,31.70
2017-06-10T14:21:38.396Z,32.30
2017-06-10T14:24:09.873Z,32.60
2017-06-10T14:26:42.160Z,32.70
2017-06-10T14:29:13.993Z,32.60
2017-06-10T14:31:46.252Z,32.60
2017-06-10T14:34:17.768Z,32.60
2017-06-10T14:36:49.260Z,32.90
2017-06-10T14:39:20.785Z,31.90
2017-06-10T14:41:52.425Z,31.60
2017-06-10T14:44:23.935Z,31.10
2017-06-10T14:46:56.207Z,31.30
2017-06-10T14:49:27.717Z,31.30
2017-06-10T14:51:59.266Z,30.80
2017-06-10T14:54:30.773Z,31.00
2017-06-10T14:57:02.326Z,31.50
2017-06-10T14:59:33.821Z,31.90
2017-06-10T15:02:05.338Z,31.80
2017-06-10T15:04:36.800Z,30.70
2017-06-10T15:07:08.283Z,30.20
2017-06-10T15:09:39.788Z,29.90
2017-06-10T15:12:11.303Z,29.40
2017-06-10T15:14:42.837Z,29.10
2017-06-10T15:17:14.390Z,28.60
2017-06-10T15:19:45.881Z,28.40
2017-06-10T15:22:18.112Z,28.20
2017-06-10T15:24:49.595Z,28.20
2017-06-10T15:27:21.933Z,27.90
2017-06-10T15:29:53.441Z,27.90
2017-06-10T15:32:24.973Z,27.80
2017-06-10T15:34:57.236Z,27.10
2017-06-10T15:37:29.456Z,26.80
2017-06-10T15:40:02.180Z,26.80
2017-06-10T15:42:34.099Z,26.60
2017-06-10T15:45:05.657Z,26.50
2017-06-10T15:47:37.213Z,26.60
2017-06-10T15:50:08.754Z,26.80
2017-06-10T15:52:40.366Z,26.50
2017-06-10T15:55:12.646Z,25.90
2017-06-10T15:57:44.201Z,25.80
2017-06-10T16:00:15.986Z,26.10
2017-06-10T16:02:47.573Z,26.00
2017-06-10T16:05:19.120Z,25.60
2017-06-10T16:07:50.645Z,25.50
2017-06-10T16:10:22.262Z,25.70
2017-06-10T16:12:54.478Z,25.80
2017-06-10T16:15:26.014Z,25.70
2017-06-10T16:17:57.484Z,25.40
2017-06-10T16:20:29.005Z,25.30
2017-06-10T16:23:00.503Z,25.20
2017-06-10T16:25:32.009Z,24.90
2017-06-10T16:28:03.500Z,25.00
2017-06-10T16:30:35.037Z,25.10
2017-06-10T16:33:06.540Z,25.20
2017-06-10T16:35:38.886Z,24.70
2017-06-10T16:38:10.361Z,24.70
2017-06-10T16:40:42.646Z,24.60
2017-06-10T16:43:14.170Z,24.60
2017-06-10T16:45:45.677Z,24.50
2017-06-10T16:48:17.213Z,24.40
2017-06-10T16:50:48.709Z,24.20
2017-06-10T16:53:20.261Z,24.10
2017-06-10T16:55:51.724Z,24.00
2017-06-10T16:58:23.321Z,24.00
2017-06-10T17:00:55.030Z,24.10
2017-06-10T17:03:26.571Z,24.00
2017-06-10T17:05:58.036Z,24.00
2017-06-10T17:08:29.546Z,23.90
2017-06-10T17:11:01.051Z,24.00
2017-06-10T17:13:32.585Z,24.10
2017-06-10T17:16:04.096Z,24.10
2017-06-10T17:18:35.585Z,23.90
2017-06-10T17:21:07.132Z,23.80
2017-06-10T17:23:38.641Z,23.80
2017-06-10T17:26:10.458Z,23.70
2017-06-10T17:28:41.969Z,23.70
2017-06-10T17:31:13.502Z,23.60
2017-06-10T17:33:45.764Z,23.60
2017-06-10T17:36:18.071Z,23.60
2017-06-10T17:38:49.556Z,23.60
2017-06-10T17:41:21.048Z,23.60
2017-06-10T17:43:53.282Z,23.60
2017-06-10T17:46:24.842Z,23.60
2017-06-10T17:48:51.261Z,23.60
2017-06-10T17:51:22.765Z,23.50
2017-06-10T17:53:54.314Z,23.50
2017-06-10T17:56:25.825Z,23.60
2017-06-10T17:58:57.381Z,23.40
2017-06-10T18:01:28.929Z,23.50
2017-06-10T18:04:00.474Z,23.50
2017-06-10T18:06:31.966Z,23.40
2017-06-10T18:09:04.341Z,23.30
2017-06-10T18:11:36.597Z,23.30
2017-06-10T18:14:08.896Z,23.20
2017-06-10T18:16:40.416Z,23.20
2017-06-10T18:19:11.958Z,23.20
2017-06-10T18:21:43.520Z,23.20
2017-06-10T18:24:15.919Z,23.10
2017-06-10T18:26:54.313Z,23.20
2017-06-10T18:29:26.913Z,23.20
2017-06-10T18:32:04.676Z,23.20
2017-06-10T18:34:36.202Z,23.30
2017-06-10T18:37:07.741Z,23.30
2017-06-10T18:39:39.254Z,23.20
2017-06-10T18:42:10.777Z,23.00
2017-06-10T18:44:42.304Z,23.00
2017-06-10T18:47:13.855Z,23.00
2017-06-10T18:49:45.353Z,23.00
2017-06-10T18:52:16.869Z,23.00
2017-06-10T18:54:48.369Z,22.80
2017-06-10T18:57:20.642Z,22.20
2017-06-10T18:59:52.910Z,22.00
2017-06-10T19:02:25.124Z,22.00
2017-06-10T19:04:56.724Z,22.00
2017-06-10T19:07:29.010Z,22.20
2017-06-10T19:10:00.506Z,22.10
2017-06-10T19:12:32.006Z,22.20
2017-06-10T19:15:04.242Z,21.90
2017-06-10T19:17:35.797Z,21.90
2017-06-10T19:20:07.318Z,21.70
2017-06-10T19:22:38.862Z,21.60
2017-06-10T19:25:10.394Z,21.70
2017-06-10T19:27:42.095Z,21.80
2017-06-10T19:30:13.613Z,21.70
2017-06-10T19:32:45.133Z,21.50
2017-06-10T19:35:16.609Z,21.30
2017-06-10T19:37:48.231Z,21.10
2017-06-10T19:40:26.694Z,21.10
2017-06-10T19:42:58.243Z,21.10
2017-06-10T19:45:29.744Z,21.20
2017-06-10T19:48:01.236Z,21.20
2017-06-10T19:50:32.718Z,21.20
2017-06-10T19:53:04.249Z,21.00
2017-06-10T19:55:35.720Z,21.00
2017-06-10T19:58:14.214Z,21.00
2017-06-10T20:00:45.697Z,20.90
2017-06-10T20:03:17.421Z,20.90
2017-06-10T20:05:48.929Z,20.80
2017-06-10T20:08:20.465Z,20.60
2017-06-10T20:10:51.998Z,20.40
2017-06-10T20:13:23.558Z,20.50
2017-06-10T20:15:55.074Z,20.40
2017-06-10T20:18:26.620Z,20.40
2017-06-10T20:20:58.080Z,20.40
2017-06-10T20:23:29.603Z,20.30
2017-06-10T20:26:02.141Z,20.20
2017-06-10T20:28:28.637Z,20.20
2017-06-10T20:31:00.905Z,20.20
2017-06-10T20:33:32.654Z,20.20
2017-06-10T20:36:04.285Z,20.10
2017-06-10T20:38:36.110Z,20.00
2017-06-10T20:41:07.749Z,19.80
2017-06-10T20:43:39.314Z,19.80
2017-06-10T20:46:10.827Z,19.80
2017-06-10T20:48:43.111Z,19.70
2017-06-10T20:51:14.590Z,19.70
2017-06-10T20:53:46.154Z,19.40
2017-06-10T20:56:17.681Z,19.50
2017-06-10T20:58:49.217Z,19.50
2017-06-10T21:01:21.566Z,19.40
2017-06-10T21:03:53.942Z,19.40
2017-06-10T21:06:25.482Z,19.40
2017-06-10T21:08:57.146Z,19.40
2017-06-10T21:11:28.713Z,19.40
2017-06-10T21:14:00.387Z,19.30
2017-06-10T21:16:31.925Z,19.20
2017-06-10T21:19:04.162Z,19.10
2017-06-10T21:21:35.990Z,19.10
2017-06-10T21:24:07.916Z,19.10
2017-06-10T21:26:39.561Z,19.10
2017-06-10T21:29:11.194Z,19.10
2017-06-10T21:31:42.689Z,19.00
2017-06-10T21:34:14.218Z,19.00
2017-06-10T21:36:45.697Z,18.90
2017-06-10T21:39:17.694Z,18.90
2017-06-10T21:41:49.362Z,18.90
2017-06-10T21:44:20.881Z,18.70
2017-06-10T21:46:52.421Z,18.70
2017-06-10T21:49:23.913Z,18.80
2017-06-10T21:51:55.437Z,18.70
2017-06-10T21:54:26.970Z,18.70
2017-06-10T21:56:58.543Z,18.50
2017-06-10T21:59:32.692Z,18.60
2017-06-10T22:02:04.222Z,18.50
2017-06-10T22:04:35.736Z,18.40
2017-06-10T22:07:08.024Z,18.20
2017-06-10T22:09:39.853Z,18.20
2017-06-10T22:12:11.345Z,18.20
2017-06-10T22:14:42.898Z,18.20
2017-06-10T22:17:14.559Z,18.10
2017-06-10T22:19:46.053Z,18.10
2017-06-10T22:22:17.557Z,18.00
2017-06-10T22:24:49.274Z,18.00
2017-06-10T22:27:21.587Z,17.80
2017-06-10T22:29:53.137Z,17.80
2017-06-10T22:32:24.678Z,17.80
2017-06-10T22:34:56.238Z,17.80
2017-06-10T22:37:27.721Z,17.80
2017-06-10T22:39:59.336Z,17.80
2017-06-10T22:42:30.839Z,17.80
2017-06-10T22:45:02.357Z,17.70
2017-06-10T22:47:34.141Z,17.50
2017-06-10T22:50:05.683Z,17.50
2017-06-10T22:52:37.341Z,17.50
2017-06-10T22:55:08.866Z,17.40
2017-06-10T22:57:40.370Z,17.30
2017-06-10T23:00:11.925Z,17.40
2017-06-10T23:02:43.446Z,17.30
2017-06-10T23:05:14.977Z,17.30
2017-06-10T23:07:46.478Z,17.20
2017-06-10T23:10:18.871Z,17.00
2017-06-10T23:12:51.109Z,17.00
2017-06-10T23:15:22.677Z,17.00
2017-06-10T23:17:54.165Z,17.00
2017-06-10T23:20:25.668Z,17.00
2017-06-10T23:22:57.177Z,16.90
2017-06-10T23:25:28.819Z,16.90
2017-06-10T23:28:10.225Z,16.80
2017-06-10T23:30:41.737Z,16.80
2017-06-10T23:33:13.954Z,16.80
2017-06-10T23:35:45.473Z,16.80
2017-06-10T23:38:17.882Z,16.80
2017-06-10T23:40:49.434Z,16.80
2017-06-10T23:43:20.961Z,16.80
2017-06-10T23:45:52.409Z,16.70
2017-06-10T23:48:24.671Z,16.70
2017-06-10T23:50:56.923Z,16.70
2017-06-10T23:53:29.194Z,16.70
2017-06-10T23:56:01.414Z,16.60
2017-06-10T23:58:33.362Z,16.60
